sensor_id;sensor_type;location;lat;lon;timestamp;temperature;humidity
57753;DHT22;43583;53.132;6.574;2024-01-27T00:00:00;3.40;99.90
57753;DHT22;43583;53.132;6.574;2024-01-27T00:02:26;3.50;99.90
57753;DHT22;43583;53.132;6.574;2024-01-27T00:04:51;3.40;99.90
57753;DHT22;43583;53.132;6.574;2024-01-27T00:07:17;3.40;99.90
57753;DHT22;43583;53.132;6.574;2024-01-27T00:09:43;3.40;99.90
57753;DHT22;43583;53.132;6.574;2024-01-27T00:12:08;3.30;99.90
57753;DHT22;43583;53.132;6.574;2024-01-27T00:14:38;3.30;99.90
57753;DHT22;43583;53.132;6.574;2024-01-27T00:17:04;3.30;99.90
57753;DHT22;43583;53.132;6.574;2024-01-27T00:19:29;3.30;99.90
57753;DHT22;43583;53.132;6.574;2024-01-27T00:21:55;3.30;99.90
57753;DHT22;43583;53.132;6.574;2024-01-27T00:24:21;3.30;99.90
57753;DHT22;43583;53.132;6.574;2024-01-27T00:26:46;3.30;99.90
57753;DHT22;43583;53.132;6.574;2024-01-27T00:29:12;3.40;99.90
57753;DHT22;43583;53.132;6.574;2024-01-27T00:31:37;3.40;99.90
57753;DHT22;43583;53.132;6.574;2024-01-27T00:34:03;3.30;99.90
57753;DHT22;43583;53.132;6.574;2024-01-27T00:36:28;3.30;99.90
57753;DHT22;43583;53.132;6.574;2024-01-27T00:38:54;3.30;99.90
57753;DHT22;43583;53.132;6.574;2024-01-27T00:41:19;3.30;99.90
57753;DHT22;43583;53.132;6.574;2024-01-27T00:43:45;3.30;99.90
57753;DHT22;43583;53.132;6.574;2024-01-27T00:46:11;3.40;99.90
57753;DHT22;43583;53.132;6.574;2024-01-27T00:48:37;3.40;99.90
57753;DHT22;43583;53.132;6.574;2024-01-27T00:51:02;3.30;99.90
57753;DHT22;43583;53.132;6.574;2024-01-27T00:53:28;3.30;99.90
57753;DHT22;43583;53.132;6.574;2024-01-27T00:55:53;3.30;99.90
57753;DHT22;43583;53.132;6.574;2024-01-27T00:58:19;3.20;99.90
57753;DHT22;43583;53.132;6.574;2024-01-27T01:00:45;3.20;99.90
57753;DHT22;43583;53.132;6.574;2024-01-27T01:03:11;3.20;99.90
57753;DHT22;43583;53.132;6.574;2024-01-27T01:05:37;3.20;99.90
57753;DHT22;43583;53.132;6.574;2024-01-27T01:08:02;3.10;99.90
57753;DHT22;43583;53.132;6.574;2024-01-27T01:10:28;3.10;99.90
57753;DHT22;43583;53.132;6.574;2024-01-27T01:12:54;3.10;99.90
57753;DHT22;43583;53.132;6.574;2024-01-27T01:15:20;3.10;99.90
57753;DHT22;43583;53.132;6.574;2024-01-27T01:17:45;3.10;99.90
57753;DHT22;43583;53.132;6.574;2024-01-27T01:20:11;3.10;99.90
57753;DHT22;43583;53.132;6.574;2024-01-27T01:22:37;3.10;99.90
57753;DHT22;43583;53.132;6.574;2024-01-27T01:25:02;3.10;99.90
57753;DHT22;43583;53.132;6.574;2024-01-27T01:27:28;3.00;99.90
57753;DHT22;43583;53.132;6.574;2024-01-27T01:29:53;3.00;99.90
57753;DHT22;43583;53.132;6.574;2024-01-27T01:32:19;3.00;99.90
57753;DHT22;43583;53.132;6.574;2024-01-27T01:34:46;3.00;99.90
57753;DHT22;43583;53.132;6.574;2024-01-27T01:37:12;2.90;99.90
57753;DHT22;43583;53.132;6.574;2024-01-27T01:39:39;2.90;99.90
57753;DHT22;43583;53.132;6.574;2024-01-27T01:42:04;2.90;99.90
57753;DHT22;43583;53.132;6.574;2024-01-27T01:44:30;2.90;99.90
57753;DHT22;43583;53.132;6.574;2024-01-27T01:46:57;2.90;99.90
57753;DHT22;43583;53.132;6.574;2024-01-27T01:49:23;2.90;99.90
57753;DHT22;43583;53.132;6.574;2024-01-27T01:51:49;2.90;99.90
57753;DHT22;43583;53.132;6.574;2024-01-27T01:54:15;2.90;99.90
57753;DHT22;43583;53.132;6.574;2024-01-27T01:56:42;3.00;99.90
57753;DHT22;43583;53.132;6.574;2024-01-27T01:59:08;2.90;99.90
57753;DHT22;43583;53.132;6.574;2024-01-27T02:01:33;2.80;99.90
57753;DHT22;43583;53.132;6.574;2024-01-27T02:03:59;2.90;99.90
57753;DHT22;43583;53.132;6.574;2024-01-27T02:06:24;2.90;99.90
57753;DHT22;43583;53.132;6.574;2024-01-27T02:08:50;2.90;99.90
57753;DHT22;43583;53.132;6.574;2024-01-27T02:11:17;2.90;99.90
57753;DHT22;43583;53.132;6.574;2024-01-27T02:13:43;2.80;99.90
57753;DHT22;43583;53.132;6.574;2024-01-27T02:16:08;2.80;99.90
57753;DHT22;43583;53.132;6.574;2024-01-27T02:18:34;2.90;99.90
57753;DHT22;43583;53.132;6.574;2024-01-27T02:21:00;2.90;99.90
57753;DHT22;43583;53.132;6.574;2024-01-27T02:23:25;2.90;99.90
57753;DHT22;43583;53.132;6.574;2024-01-27T02:25:51;2.90;99.90
57753;DHT22;43583;53.132;6.574;2024-01-27T02:28:17;2.80;99.90
57753;DHT22;43583;53.132;6.574;2024-01-27T02:30:43;2.90;99.90
57753;DHT22;43583;53.132;6.574;2024-01-27T02:33:09;2.80;99.90
57753;DHT22;43583;53.132;6.574;2024-01-27T02:35:35;2.80;99.90
57753;DHT22;43583;53.132;6.574;2024-01-27T02:38:00;2.90;99.90
57753;DHT22;43583;53.132;6.574;2024-01-27T02:40:26;2.90;99.90
57753;DHT22;43583;53.132;6.574;2024-01-27T02:42:52;2.90;99.90
57753;DHT22;43583;53.132;6.574;2024-01-27T02:45:17;2.90;99.90
57753;DHT22;43583;53.132;6.574;2024-01-27T02:47:43;2.90;99.90
57753;DHT22;43583;53.132;6.574;2024-01-27T02:50:09;2.90;99.90
57753;DHT22;43583;53.132;6.574;2024-01-27T02:52:34;2.90;99.90
57753;DHT22;43583;53.132;6.574;2024-01-27T02:55:00;2.90;99.90
57753;DHT22;43583;53.132;6.574;2024-01-27T02:57:26;3.00;99.90
57753;DHT22;43583;53.132;6.574;2024-01-27T02:59:51;2.90;99.90
57753;DHT22;43583;53.132;6.574;2024-01-27T03:02:17;2.90;99.90
57753;DHT22;43583;53.132;6.574;2024-01-27T03:04:43;2.90;99.90
57753;DHT22;43583;53.132;6.574;2024-01-27T03:07:08;2.90;99.90
57753;DHT22;43583;53.132;6.574;2024-01-27T03:09:34;2.90;99.90
57753;DHT22;43583;53.132;6.574;2024-01-27T03:11:59;2.90;99.90
57753;DHT22;43583;53.132;6.574;2024-01-27T03:14:25;2.80;99.90
57753;DHT22;43583;53.132;6.574;2024-01-27T03:16:50;2.80;99.90
57753;DHT22;43583;53.132;6.574;2024-01-27T03:19:16;2.80;99.90
57753;DHT22;43583;53.132;6.574;2024-01-27T03:21:42;2.80;99.90
57753;DHT22;43583;53.132;6.574;2024-01-27T03:24:07;2.80;99.90
57753;DHT22;43583;53.132;6.574;2024-01-27T03:26:33;2.80;99.90
57753;DHT22;43583;53.132;6.574;2024-01-27T03:28:59;2.80;99.90
57753;DHT22;43583;53.132;6.574;2024-01-27T03:31:33;2.80;99.90
57753;DHT22;43583;53.132;6.574;2024-01-27T03:34:00;2.80;99.90
57753;DHT22;43583;53.132;6.574;2024-01-27T03:36:26;2.70;99.90
57753;DHT22;43583;53.132;6.574;2024-01-27T03:38:51;2.80;99.90
57753;DHT22;43583;53.132;6.574;2024-01-27T03:41:17;2.70;99.90
57753;DHT22;43583;53.132;6.574;2024-01-27T03:43:43;2.70;99.90
57753;DHT22;43583;53.132;6.574;2024-01-27T03:46:08;2.70;99.90
57753;DHT22;43583;53.132;6.574;2024-01-27T03:48:34;2.70;99.90
57753;DHT22;43583;53.132;6.574;2024-01-27T03:51:02;2.70;99.90
57753;DHT22;43583;53.132;6.574;2024-01-27T03:53:28;2.70;99.90
57753;DHT22;43583;53.132;6.574;2024-01-27T03:55:54;2.70;99.90
57753;DHT22;43583;53.132;6.574;2024-01-27T03:58:19;2.70;99.90
57753;DHT22;43583;53.132;6.574;2024-01-27T04:00:45;2.70;99.90
57753;DHT22;43583;53.132;6.574;2024-01-27T04:03:11;2.70;99.90
57753;DHT22;43583;53.132;6.574;2024-01-27T04:05:36;2.70;99.90
57753;DHT22;43583;53.132;6.574;2024-01-27T04:08:04;2.70;99.90
57753;DHT22;43583;53.132;6.574;2024-01-27T04:10:29;2.70;99.90
57753;DHT22;43583;53.132;6.574;2024-01-27T04:12:55;2.70;99.90
57753;DHT22;43583;53.132;6.574;2024-01-27T04:15:21;2.70;99.90
57753;DHT22;43583;53.132;6.574;2024-01-27T04:17:46;2.70;99.90
57753;DHT22;43583;53.132;6.574;2024-01-27T04:20:12;2.80;99.90
57753;DHT22;43583;53.132;6.574;2024-01-27T04:22:38;2.80;99.90
57753;DHT22;43583;53.132;6.574;2024-01-27T04:25:04;2.70;99.90
57753;DHT22;43583;53.132;6.574;2024-01-27T04:27:30;2.70;99.90
57753;DHT22;43583;53.132;6.574;2024-01-27T04:29:55;2.80;99.90
57753;DHT22;43583;53.132;6.574;2024-01-27T04:32:22;2.80;99.90
57753;DHT22;43583;53.132;6.574;2024-01-27T04:34:48;2.80;99.90
57753;DHT22;43583;53.132;6.574;2024-01-27T04:37:14;2.80;99.90
57753;DHT22;43583;53.132;6.574;2024-01-27T04:39:39;2.70;99.90
57753;DHT22;43583;53.132;6.574;2024-01-27T04:42:05;2.80;99.90
57753;DHT22;43583;53.132;6.574;2024-01-27T04:44:34;2.70;99.90
57753;DHT22;43583;53.132;6.574;2024-01-27T04:47:00;2.70;99.90
57753;DHT22;43583;53.132;6.574;2024-01-27T04:49:26;2.70;99.90
57753;DHT22;43583;53.132;6.574;2024-01-27T04:51:51;2.80;99.90
57753;DHT22;43583;53.132;6.574;2024-01-27T04:54:17;2.70;99.90
57753;DHT22;43583;53.132;6.574;2024-01-27T04:56:42;2.70;99.90
57753;DHT22;43583;53.132;6.574;2024-01-27T04:59:08;2.60;99.90
57753;DHT22;43583;53.132;6.574;2024-01-27T05:01:34;2.60;99.90
57753;DHT22;43583;53.132;6.574;2024-01-27T05:03:59;2.60;99.90
57753;DHT22;43583;53.132;6.574;2024-01-27T05:06:25;2.50;99.90
57753;DHT22;43583;53.132;6.574;2024-01-27T05:08:51;2.50;99.90
57753;DHT22;43583;53.132;6.574;2024-01-27T05:11:25;2.50;99.90
57753;DHT22;43583;53.132;6.574;2024-01-27T05:13:52;2.40;99.90
57753;DHT22;43583;53.132;6.574;2024-01-27T05:16:17;2.40;99.90
57753;DHT22;43583;53.132;6.574;2024-01-27T05:18:43;2.40;99.90
57753;DHT22;43583;53.132;6.574;2024-01-27T05:21:08;2.40;99.90
57753;DHT22;43583;53.132;6.574;2024-01-27T05:23:34;2.40;99.90
57753;DHT22;43583;53.132;6.574;2024-01-27T05:25:59;2.40;99.90
57753;DHT22;43583;53.132;6.574;2024-01-27T05:28:25;2.40;99.90
57753;DHT22;43583;53.132;6.574;2024-01-27T05:30:50;2.40;99.90
57753;DHT22;43583;53.132;6.574;2024-01-27T05:33:16;2.50;99.90
57753;DHT22;43583;53.132;6.574;2024-01-27T05:35:42;2.50;99.90
57753;DHT22;43583;53.132;6.574;2024-01-27T05:38:08;2.50;99.90
57753;DHT22;43583;53.132;6.574;2024-01-27T05:40:33;2.50;99.90
57753;DHT22;43583;53.132;6.574;2024-01-27T05:42:59;2.50;99.90
57753;DHT22;43583;53.132;6.574;2024-01-27T05:45:25;2.50;99.90
57753;DHT22;43583;53.132;6.574;2024-01-27T05:47:51;2.50;99.90
57753;DHT22;43583;53.132;6.574;2024-01-27T05:50:17;2.50;99.90
57753;DHT22;43583;53.132;6.574;2024-01-27T05:52:43;2.50;99.90
57753;DHT22;43583;53.132;6.574;2024-01-27T05:55:08;2.50;99.90
57753;DHT22;43583;53.132;6.574;2024-01-27T05:57:35;2.50;99.90
57753;DHT22;43583;53.132;6.574;2024-01-27T06:00:01;2.50;99.90
57753;DHT22;43583;53.132;6.574;2024-01-27T06:02:26;2.60;99.90
57753;DHT22;43583;53.132;6.574;2024-01-27T06:04:52;2.60;99.90
57753;DHT22;43583;53.132;6.574;2024-01-27T06:07:18;2.60;99.90
57753;DHT22;43583;53.132;6.574;2024-01-27T06:09:43;2.60;99.90
57753;DHT22;43583;53.132;6.574;2024-01-27T06:12:09;2.60;99.90
57753;DHT22;43583;53.132;6.574;2024-01-27T06:14:34;2.60;99.90
57753;DHT22;43583;53.132;6.574;2024-01-27T06:17:02;2.70;99.90
57753;DHT22;43583;53.132;6.574;2024-01-27T06:19:28;2.60;99.90
57753;DHT22;43583;53.132;6.574;2024-01-27T06:21:53;2.70;99.90
57753;DHT22;43583;53.132;6.574;2024-01-27T06:24:19;2.70;99.90
57753;DHT22;43583;53.132;6.574;2024-01-27T06:26:44;2.70;99.90
57753;DHT22;43583;53.132;6.574;2024-01-27T06:29:10;2.70;99.90
57753;DHT22;43583;53.132;6.574;2024-01-27T06:31:36;2.70;99.90
57753;DHT22;43583;53.132;6.574;2024-01-27T06:34:02;2.70;99.90
57753;DHT22;43583;53.132;6.574;2024-01-27T06:36:27;2.70;99.90
57753;DHT22;43583;53.132;6.574;2024-01-27T06:38:53;2.60;99.90
57753;DHT22;43583;53.132;6.574;2024-01-27T06:41:19;2.60;99.90
57753;DHT22;43583;53.132;6.574;2024-01-27T06:43:45;2.50;99.90
57753;DHT22;43583;53.132;6.574;2024-01-27T06:46:11;2.50;99.90
57753;DHT22;43583;53.132;6.574;2024-01-27T06:48:36;2.50;99.90
57753;DHT22;43583;53.132;6.574;2024-01-27T06:51:03;2.50;99.90
57753;DHT22;43583;53.132;6.574;2024-01-27T06:53:28;2.50;99.90
57753;DHT22;43583;53.132;6.574;2024-01-27T06:55:54;2.50;99.90
57753;DHT22;43583;53.132;6.574;2024-01-27T06:58:20;2.50;99.90
57753;DHT22;43583;53.132;6.574;2024-01-27T07:00:45;2.50;99.90
57753;DHT22;43583;53.132;6.574;2024-01-27T07:03:11;2.60;99.90
57753;DHT22;43583;53.132;6.574;2024-01-27T07:05:37;2.50;99.90
57753;DHT22;43583;53.132;6.574;2024-01-27T07:08:07;2.50;99.90
57753;DHT22;43583;53.132;6.574;2024-01-27T07:10:32;2.50;99.90
57753;DHT22;43583;53.132;6.574;2024-01-27T07:12:58;2.50;99.90
57753;DHT22;43583;53.132;6.574;2024-01-27T07:15:23;2.50;99.90
57753;DHT22;43583;53.132;6.574;2024-01-27T07:17:49;2.50;99.90
57753;DHT22;43583;53.132;6.574;2024-01-27T07:20:15;2.40;99.90
57753;DHT22;43583;53.132;6.574;2024-01-27T07:22:41;2.40;99.90
57753;DHT22;43583;53.132;6.574;2024-01-27T07:25:07;2.40;99.90
57753;DHT22;43583;53.132;6.574;2024-01-27T07:27:35;2.40;99.90
57753;DHT22;43583;53.132;6.574;2024-01-27T07:30:01;2.40;99.90
57753;DHT22;43583;53.132;6.574;2024-01-27T07:32:27;2.40;99.90
57753;DHT22;43583;53.132;6.574;2024-01-27T07:34:53;2.40;99.90
57753;DHT22;43583;53.132;6.574;2024-01-27T07:37:18;2.40;99.90
57753;DHT22;43583;53.132;6.574;2024-01-27T07:39:46;2.40;99.90
57753;DHT22;43583;53.132;6.574;2024-01-27T07:42:12;2.50;99.90
57753;DHT22;43583;53.132;6.574;2024-01-27T07:44:37;2.50;99.90
57753;DHT22;43583;53.132;6.574;2024-01-27T07:47:03;2.60;99.90
57753;DHT22;43583;53.132;6.574;2024-01-27T07:49:29;2.60;99.90
57753;DHT22;43583;53.132;6.574;2024-01-27T07:51:54;2.60;99.90
57753;DHT22;43583;53.132;6.574;2024-01-27T07:54:20;2.70;99.90
57753;DHT22;43583;53.132;6.574;2024-01-27T07:56:46;2.80;99.90
57753;DHT22;43583;53.132;6.574;2024-01-27T07:59:12;2.80;99.90
57753;DHT22;43583;53.132;6.574;2024-01-27T08:01:40;2.90;99.90
57753;DHT22;43583;53.132;6.574;2024-01-27T08:04:06;2.90;99.90
57753;DHT22;43583;53.132;6.574;2024-01-27T08:06:31;2.90;99.90
57753;DHT22;43583;53.132;6.574;2024-01-27T08:08:57;3.00;99.90
57753;DHT22;43583;53.132;6.574;2024-01-27T08:11:23;3.00;99.90
57753;DHT22;43583;53.132;6.574;2024-01-27T08:13:50;3.00;99.90
57753;DHT22;43583;53.132;6.574;2024-01-27T08:16:15;3.10;99.90
57753;DHT22;43583;53.132;6.574;2024-01-27T08:18:42;3.10;99.90
57753;DHT22;43583;53.132;6.574;2024-01-27T08:21:10;3.10;99.90
57753;DHT22;43583;53.132;6.574;2024-01-27T08:23:36;3.10;99.90
57753;DHT22;43583;53.132;6.574;2024-01-27T08:26:01;3.20;99.90
57753;DHT22;43583;53.132;6.574;2024-01-27T08:28:27;3.20;99.90
57753;DHT22;43583;53.132;6.574;2024-01-27T08:30:53;3.20;99.90
57753;DHT22;43583;53.132;6.574;2024-01-27T08:33:18;3.30;99.90
57753;DHT22;43583;53.132;6.574;2024-01-27T08:35:46;3.30;99.90
57753;DHT22;43583;53.132;6.574;2024-01-27T08:38:13;3.40;99.90
57753;DHT22;43583;53.132;6.574;2024-01-27T08:40:39;3.50;99.90
57753;DHT22;43583;53.132;6.574;2024-01-27T08:43:04;3.50;99.90
57753;DHT22;43583;53.132;6.574;2024-01-27T08:45:31;3.60;99.90
57753;DHT22;43583;53.132;6.574;2024-01-27T08:47:57;3.60;99.90
57753;DHT22;43583;53.132;6.574;2024-01-27T08:50:22;3.70;99.90
57753;DHT22;43583;53.132;6.574;2024-01-27T08:52:48;3.70;99.90
57753;DHT22;43583;53.132;6.574;2024-01-27T08:55:14;3.80;99.90
57753;DHT22;43583;53.132;6.574;2024-01-27T08:57:41;3.80;99.90
57753;DHT22;43583;53.132;6.574;2024-01-27T09:00:08;3.90;99.90
57753;DHT22;43583;53.132;6.574;2024-01-27T09:02:34;4.00;99.90
57753;DHT22;43583;53.132;6.574;2024-01-27T09:05:00;4.00;99.90
57753;DHT22;43583;53.132;6.574;2024-01-27T09:07:25;4.00;99.90
57753;DHT22;43583;53.132;6.574;2024-01-27T09:09:51;4.10;99.90
57753;DHT22;43583;53.132;6.574;2024-01-27T09:12:16;4.20;99.90
57753;DHT22;43583;53.132;6.574;2024-01-27T09:14:42;4.20;99.90
57753;DHT22;43583;53.132;6.574;2024-01-27T09:17:08;4.30;99.90
57753;DHT22;43583;53.132;6.574;2024-01-27T09:19:33;4.40;99.90
57753;DHT22;43583;53.132;6.574;2024-01-27T09:21:59;4.90;99.90
57753;DHT22;43583;53.132;6.574;2024-01-27T09:24:25;5.50;99.90
57753;DHT22;43583;53.132;6.574;2024-01-27T09:26:50;6.10;99.90
57753;DHT22;43583;53.132;6.574;2024-01-27T09:29:16;6.70;99.90
57753;DHT22;43583;53.132;6.574;2024-01-27T09:31:43;7.20;99.90
57753;DHT22;43583;53.132;6.574;2024-01-27T09:34:08;7.50;99.90
57753;DHT22;43583;53.132;6.574;2024-01-27T09:36:34;7.90;99.90
57753;DHT22;43583;53.132;6.574;2024-01-27T09:39:00;8.40;99.90
57753;DHT22;43583;53.132;6.574;2024-01-27T09:41:29;8.60;99.90
57753;DHT22;43583;53.132;6.574;2024-01-27T09:43:59;9.10;99.90
57753;DHT22;43583;53.132;6.574;2024-01-27T09:46:26;9.30;99.90
57753;DHT22;43583;53.132;6.574;2024-01-27T09:48:52;9.40;99.90
57753;DHT22;43583;53.132;6.574;2024-01-27T09:51:19;9.50;99.90
57753;DHT22;43583;53.132;6.574;2024-01-27T09:53:45;9.70;99.90
57753;DHT22;43583;53.132;6.574;2024-01-27T09:56:12;9.60;99.90
57753;DHT22;43583;53.132;6.574;2024-01-27T09:58:43;9.60;99.90
57753;DHT22;43583;53.132;6.574;2024-01-27T10:01:10;9.90;99.90
57753;DHT22;43583;53.132;6.574;2024-01-27T10:03:39;9.80;99.90
57753;DHT22;43583;53.132;6.574;2024-01-27T10:06:08;9.70;99.90
57753;DHT22;43583;53.132;6.574;2024-01-27T10:08:33;9.10;99.90
57753;DHT22;43583;53.132;6.574;2024-01-27T10:10:59;8.70;99.90
57753;DHT22;43583;53.132;6.574;2024-01-27T10:13:29;8.30;99.90
57753;DHT22;43583;53.132;6.574;2024-01-27T10:16:06;8.00;99.90
57753;DHT22;43583;53.132;6.574;2024-01-27T10:18:32;7.80;99.90
57753;DHT22;43583;53.132;6.574;2024-01-27T10:20:59;7.60;99.90
57753;DHT22;43583;53.132;6.574;2024-01-27T10:23:25;7.40;99.90
57753;DHT22;43583;53.132;6.574;2024-01-27T10:25:51;7.30;99.90
57753;DHT22;43583;53.132;6.574;2024-01-27T10:28:17;7.30;99.90
57753;DHT22;43583;53.132;6.574;2024-01-27T10:30:46;7.20;99.90
57753;DHT22;43583;53.132;6.574;2024-01-27T10:57:40;7.40;99.90
57753;DHT22;43583;53.132;6.574;2024-01-27T11:00:06;7.50;99.90
57753;DHT22;43583;53.132;6.574;2024-01-27T11:02:34;7.50;99.90
57753;DHT22;43583;53.132;6.574;2024-01-27T11:05:02;7.60;99.90
57753;DHT22;43583;53.132;6.574;2024-01-27T11:07:30;7.60;99.90
57753;DHT22;43583;53.132;6.574;2024-01-27T11:09:57;7.70;99.90
57753;DHT22;43583;53.132;6.574;2024-01-27T11:12:23;7.70;99.90
57753;DHT22;43583;53.132;6.574;2024-01-27T11:14:52;7.80;99.90
57753;DHT22;43583;53.132;6.574;2024-01-27T11:17:19;7.80;99.90
57753;DHT22;43583;53.132;6.574;2024-01-27T11:19:45;7.80;99.90
57753;DHT22;43583;53.132;6.574;2024-01-27T11:22:28;7.90;99.90
57753;DHT22;43583;53.132;6.574;2024-01-27T11:25:15;8.00;99.90
57753;DHT22;43583;53.132;6.574;2024-01-27T11:27:43;8.00;99.90
57753;DHT22;43583;53.132;6.574;2024-01-27T11:30:32;8.10;99.90
57753;DHT22;43583;53.132;6.574;2024-01-27T11:33:04;8.10;99.90
57753;DHT22;43583;53.132;6.574;2024-01-27T11:35:30;8.10;99.90
57753;DHT22;43583;53.132;6.574;2024-01-27T11:37:55;8.10;99.90
57753;DHT22;43583;53.132;6.574;2024-01-27T11:40:21;8.20;99.90
57753;DHT22;43583;53.132;6.574;2024-01-27T11:43:00;8.20;99.90
57753;DHT22;43583;53.132;6.574;2024-01-27T11:45:26;8.20;99.90
57753;DHT22;43583;53.132;6.574;2024-01-27T11:47:55;8.30;99.90
57753;DHT22;43583;53.132;6.574;2024-01-27T11:50:21;8.30;99.90
57753;DHT22;43583;53.132;6.574;2024-01-27T11:52:47;8.30;99.90
57753;DHT22;43583;53.132;6.574;2024-01-27T11:55:13;8.40;99.90
57753;DHT22;43583;53.132;6.574;2024-01-27T11:57:42;8.30;99.90
57753;DHT22;43583;53.132;6.574;2024-01-27T12:00:08;8.40;99.90
57753;DHT22;43583;53.132;6.574;2024-01-27T12:02:37;8.40;99.90
57753;DHT22;43583;53.132;6.574;2024-01-27T12:05:04;8.50;99.90
57753;DHT22;43583;53.132;6.574;2024-01-27T12:07:30;8.50;99.90
57753;DHT22;43583;53.132;6.574;2024-01-27T12:09:56;8.60;99.90
57753;DHT22;43583;53.132;6.574;2024-01-27T12:12:22;8.70;99.90
57753;DHT22;43583;53.132;6.574;2024-01-27T12:14:49;8.70;99.90
57753;DHT22;43583;53.132;6.574;2024-01-27T12:17:16;8.70;99.90
57753;DHT22;43583;53.132;6.574;2024-01-27T12:19:46;8.80;99.90
57753;DHT22;43583;53.132;6.574;2024-01-27T12:22:22;8.80;99.90
57753;DHT22;43583;53.132;6.574;2024-01-27T12:24:48;8.80;99.90
57753;DHT22;43583;53.132;6.574;2024-01-27T12:27:14;8.90;99.90
57753;DHT22;43583;53.132;6.574;2024-01-27T12:29:41;8.90;99.90
57753;DHT22;43583;53.132;6.574;2024-01-27T12:32:07;8.90;99.90
57753;DHT22;43583;53.132;6.574;2024-01-27T12:34:33;8.90;99.90
57753;DHT22;43583;53.132;6.574;2024-01-27T12:36:58;8.90;99.90
57753;DHT22;43583;53.132;6.574;2024-01-27T12:39:26;8.90;99.90
57753;DHT22;43583;53.132;6.574;2024-01-27T12:41:51;8.90;99.90
57753;DHT22;43583;53.132;6.574;2024-01-27T12:44:17;8.90;99.90
57753;DHT22;43583;53.132;6.574;2024-01-27T12:46:42;8.90;99.90
57753;DHT22;43583;53.132;6.574;2024-01-27T12:49:08;8.80;99.90
57753;DHT22;43583;53.132;6.574;2024-01-27T12:51:34;8.60;99.90
57753;DHT22;43583;53.132;6.574;2024-01-27T12:53:59;8.60;99.90
57753;DHT22;43583;53.132;6.574;2024-01-27T12:56:25;8.50;99.90
57753;DHT22;43583;53.132;6.574;2024-01-27T12:58:51;8.50;99.90
57753;DHT22;43583;53.132;6.574;2024-01-27T13:01:16;8.50;99.90
57753;DHT22;43583;53.132;6.574;2024-01-27T13:03:42;8.50;99.90
57753;DHT22;43583;53.132;6.574;2024-01-27T13:06:07;8.50;99.90
57753;DHT22;43583;53.132;6.574;2024-01-27T13:08:33;8.40;99.90
57753;DHT22;43583;53.132;6.574;2024-01-27T13:10:59;8.30;99.90
57753;DHT22;43583;53.132;6.574;2024-01-27T13:13:24;8.10;99.90
57753;DHT22;43583;53.132;6.574;2024-01-27T13:15:50;8.10;99.90
57753;DHT22;43583;53.132;6.574;2024-01-27T13:18:16;8.00;99.90
57753;DHT22;43583;53.132;6.574;2024-01-27T13:20:41;8.00;99.90
57753;DHT22;43583;53.132;6.574;2024-01-27T13:23:07;8.00;99.90
57753;DHT22;43583;53.132;6.574;2024-01-27T13:25:33;8.00;99.90
57753;DHT22;43583;53.132;6.574;2024-01-27T13:27:58;8.00;99.90
57753;DHT22;43583;53.132;6.574;2024-01-27T13:30:24;8.10;99.90
57753;DHT22;43583;53.132;6.574;2024-01-27T13:32:50;8.10;99.90
57753;DHT22;43583;53.132;6.574;2024-01-27T13:35:16;8.10;99.90
57753;DHT22;43583;53.132;6.574;2024-01-27T13:37:42;8.20;99.90
57753;DHT22;43583;53.132;6.574;2024-01-27T13:40:08;8.20;99.90
57753;DHT22;43583;53.132;6.574;2024-01-27T13:42:36;8.30;99.90
57753;DHT22;43583;53.132;6.574;2024-01-27T13:45:03;8.30;99.90
57753;DHT22;43583;53.132;6.574;2024-01-27T13:47:29;8.40;99.90
57753;DHT22;43583;53.132;6.574;2024-01-27T13:49:55;8.40;99.90
57753;DHT22;43583;53.132;6.574;2024-01-27T13:52:20;8.40;99.90
57753;DHT22;43583;53.132;6.574;2024-01-27T13:54:46;8.50;99.90
57753;DHT22;43583;53.132;6.574;2024-01-27T13:57:12;8.50;99.90
57753;DHT22;43583;53.132;6.574;2024-01-27T13:59:37;8.50;99.90
57753;DHT22;43583;53.132;6.574;2024-01-27T14:02:03;8.50;99.90
57753;DHT22;43583;53.132;6.574;2024-01-27T14:04:29;8.50;99.90
57753;DHT22;43583;53.132;6.574;2024-01-27T14:06:55;8.50;99.90
57753;DHT22;43583;53.132;6.574;2024-01-27T14:09:24;8.50;99.90
57753;DHT22;43583;53.132;6.574;2024-01-27T14:11:50;8.50;99.90
57753;DHT22;43583;53.132;6.574;2024-01-27T14:14:16;8.50;99.90
57753;DHT22;43583;53.132;6.574;2024-01-27T14:16:46;8.40;99.90
57753;DHT22;43583;53.132;6.574;2024-01-27T14:19:12;8.40;99.90
57753;DHT22;43583;53.132;6.574;2024-01-27T14:21:38;8.30;99.90
57753;DHT22;43583;53.132;6.574;2024-01-27T14:24:05;8.20;99.90
57753;DHT22;43583;53.132;6.574;2024-01-27T14:26:32;8.20;99.90
57753;DHT22;43583;53.132;6.574;2024-01-27T14:28:58;8.10;99.90
57753;DHT22;43583;53.132;6.574;2024-01-27T14:31:23;8.00;99.90
57753;DHT22;43583;53.132;6.574;2024-01-27T14:33:49;8.00;99.90
57753;DHT22;43583;53.132;6.574;2024-01-27T14:36:15;8.00;99.90
57753;DHT22;43583;53.132;6.574;2024-01-27T14:38:41;7.90;99.90
57753;DHT22;43583;53.132;6.574;2024-01-27T14:41:07;7.90;99.90
57753;DHT22;43583;53.132;6.574;2024-01-27T14:43:33;7.90;99.90
57753;DHT22;43583;53.132;6.574;2024-01-27T14:45:58;7.90;99.90
57753;DHT22;43583;53.132;6.574;2024-01-27T14:48:24;7.90;99.90
57753;DHT22;43583;53.132;6.574;2024-01-27T14:50:50;7.90;99.90
57753;DHT22;43583;53.132;6.574;2024-01-27T14:53:22;7.90;99.90
57753;DHT22;43583;53.132;6.574;2024-01-27T14:55:48;7.80;99.90
57753;DHT22;43583;53.132;6.574;2024-01-27T14:58:14;7.80;99.90
57753;DHT22;43583;53.132;6.574;2024-01-27T15:00:40;7.80;99.90
57753;DHT22;43583;53.132;6.574;2024-01-27T15:03:06;7.70;99.90
57753;DHT22;43583;53.132;6.574;2024-01-27T15:05:31;7.70;99.90
57753;DHT22;43583;53.132;6.574;2024-01-27T15:08:04;7.60;99.90
57753;DHT22;43583;53.132;6.574;2024-01-27T15:10:30;7.60;99.90
57753;DHT22;43583;53.132;6.574;2024-01-27T15:12:56;7.50;99.90
57753;DHT22;43583;53.132;6.574;2024-01-27T15:15:23;7.40;99.90
57753;DHT22;43583;53.132;6.574;2024-01-27T15:17:49;7.40;99.90
57753;DHT22;43583;53.132;6.574;2024-01-27T15:20:15;7.30;99.90
57753;DHT22;43583;53.132;6.574;2024-01-27T15:22:41;7.30;99.90
57753;DHT22;43583;53.132;6.574;2024-01-27T15:25:07;7.20;99.90
57753;DHT22;43583;53.132;6.574;2024-01-27T15:27:33;7.10;99.90
57753;DHT22;43583;53.132;6.574;2024-01-27T15:29:58;7.00;99.90
57753;DHT22;43583;53.132;6.574;2024-01-27T15:32:24;7.00;99.90
57753;DHT22;43583;53.132;6.574;2024-01-27T15:34:52;6.90;99.90
57753;DHT22;43583;53.132;6.574;2024-01-27T15:37:18;6.80;99.90
57753;DHT22;43583;53.132;6.574;2024-01-27T15:39:44;6.80;99.90
57753;DHT22;43583;53.132;6.574;2024-01-27T15:42:10;6.70;99.90
57753;DHT22;43583;53.132;6.574;2024-01-27T15:44:36;6.70;99.90
57753;DHT22;43583;53.132;6.574;2024-01-27T15:47:01;6.60;99.90
57753;DHT22;43583;53.132;6.574;2024-01-27T15:49:27;6.60;99.90
57753;DHT22;43583;53.132;6.574;2024-01-27T15:51:53;6.50;99.90
57753;DHT22;43583;53.132;6.574;2024-01-27T15:54:20;6.40;99.90
57753;DHT22;43583;53.132;6.574;2024-01-27T15:56:46;6.30;99.90
57753;DHT22;43583;53.132;6.574;2024-01-27T15:59:12;6.20;99.90
57753;DHT22;43583;53.132;6.574;2024-01-27T16:01:39;6.10;99.90